sensor_id;sensor_type;location;lat;lon;timestamp;pressure;altitude;pressure_sealevel;temperature;humidity
48846;BME280;34665;51.886;5.436;2022-07-09T00:01:38;102692.31;;;22.67;100.00
48846;BME280;34665;51.886;5.436;2022-07-09T00:04:03;102691.84;;;22.70;100.00
48846;BME280;34665;51.886;5.436;2022-07-09T00:06:29;102687.88;;;22.85;100.00
48846;BME280;34665;51.886;5.436;2022-07-09T00:08:57;102690.91;;;22.76;100.00
48846;BME280;34665;51.886;5.436;2022-07-09T00:11:23;102689.53;;;22.86;100.00
48846;BME280;34665;51.886;5.436;2022-07-09T00:13:48;102684.72;;;22.69;100.00
48846;BME280;34665;51.886;5.436;2022-07-09T00:16:14;102681.28;;;22.62;100.00
48846;BME280;34665;51.886;5.436;2022-07-09T00:18:39;102688.16;;;22.65;100.00
48846;BME280;34665;51.886;5.436;2022-07-09T00:21:05;102690.25;;;22.32;100.00
48846;BME280;34665;51.886;5.436;2022-07-09T00:23:31;102690.25;;;22.32;100.00
48846;BME280;34665;51.886;5.436;2022-07-09T00:25:56;102677.38;;;22.39;100.00
48846;BME280;34665;51.886;5.436;2022-07-09T00:28:22;102681.34;;;22.25;100.00
48846;BME280;34665;51.886;5.436;2022-07-09T00:30:48;102683.53;;;22.16;100.00
48846;BME280;34665;51.886;5.436;2022-07-09T00:33:13;102680.19;;;22.32;100.00
48846;BME280;34665;51.886;5.436;2022-07-09T00:35:38;102687.59;;;22.25;100.00
48846;BME280;34665;51.886;5.436;2022-07-09T00:38:04;102692.09;;;22.19;100.00
48846;BME280;34665;51.886;5.436;2022-07-09T00:40:29;102685.28;;;22.10;100.00
48846;BME280;34665;51.886;5.436;2022-07-09T00:42:55;102687.72;;;22.00;100.00
48846;BME280;34665;51.886;5.436;2022-07-09T00:45:20;102689.13;;;22.02;100.00
48846;BME280;34665;51.886;5.436;2022-07-09T00:47:46;102684.84;;;21.95;100.00
48846;BME280;34665;51.886;5.436;2022-07-09T00:50:12;102679.47;;;21.88;100.00
48846;BME280;34665;51.886;5.436;2022-07-09T00:52:38;102674.16;;;21.74;100.00
48846;BME280;34665;51.886;5.436;2022-07-09T00:55:06;102672.69;;;21.53;100.00
48846;BME280;34665;51.886;5.436;2022-07-09T00:57:32;102679.69;;;21.68;100.00
48846;BME280;34665;51.886;5.436;2022-07-09T00:59:58;102674.22;;;21.68;100.00
48846;BME280;34665;51.886;5.436;2022-07-09T01:02:24;102672.16;;;21.70;100.00
48846;BME280;34665;51.886;5.436;2022-07-09T01:04:50;102668.97;;;21.47;100.00
48846;BME280;34665;51.886;5.436;2022-07-09T01:07:16;102664.13;;;21.49;100.00
48846;BME280;34665;51.886;5.436;2022-07-09T01:09:42;102671.59;;;21.35;100.00
48846;BME280;34665;51.886;5.436;2022-07-09T01:12:08;102664.00;;;21.44;100.00
48846;BME280;34665;51.886;5.436;2022-07-09T01:14:34;102663.59;;;21.41;100.00
48846;BME280;34665;51.886;5.436;2022-07-09T01:17:01;102664.94;;;21.31;100.00
48846;BME280;34665;51.886;5.436;2022-07-09T01:19:28;102658.28;;;21.27;100.00
48846;BME280;34665;51.886;5.436;2022-07-09T01:21:53;102657.44;;;21.27;100.00
48846;BME280;34665;51.886;5.436;2022-07-09T01:24:19;102656.53;;;21.14;100.00
48846;BME280;34665;51.886;5.436;2022-07-09T01:26:45;102653.50;;;21.23;100.00
48846;BME280;34665;51.886;5.436;2022-07-09T01:29:10;102650.59;;;21.24;100.00
48846;BME280;34665;51.886;5.436;2022-07-09T01:31:36;102653.91;;;21.26;100.00
48846;BME280;34665;51.886;5.436;2022-07-09T01:34:02;102644.53;;;21.22;100.00
48846;BME280;34665;51.886;5.436;2022-07-09T01:36:27;102650.88;;;21.34;100.00
48846;BME280;34665;51.886;5.436;2022-07-09T01:38:52;102647.25;;;21.41;100.00
48846;BME280;34665;51.886;5.436;2022-07-09T01:41:18;102646.72;;;21.32;100.00
48846;BME280;34665;51.886;5.436;2022-07-09T01:43:44;102645.25;;;21.36;100.00
48846;BME280;34665;51.886;5.436;2022-07-09T01:46:09;102647.56;;;21.07;100.00
48846;BME280;34665;51.886;5.436;2022-07-09T01:48:34;102640.22;;;21.14;100.00
48846;BME280;34665;51.886;5.436;2022-07-09T01:51:04;102644.53;;;20.97;100.00
48846;BME280;34665;51.886;5.436;2022-07-09T01:53:29;102635.13;;;20.99;100.00
48846;BME280;34665;51.886;5.436;2022-07-09T01:55:55;102641.84;;;20.90;100.00
48846;BME280;34665;51.886;5.436;2022-07-09T01:58:20;102627.38;;;20.96;100.00
48846;BME280;34665;51.886;5.436;2022-07-09T02:00:46;102632.09;;;21.08;100.00
48846;BME280;34665;51.886;5.436;2022-07-09T02:03:11;102628.66;;;20.94;100.00
48846;BME280;34665;51.886;5.436;2022-07-09T02:05:37;102638.44;;;21.01;100.00
48846;BME280;34665;51.886;5.436;2022-07-09T02:08:03;102642.03;;;20.95;100.00
48846;BME280;34665;51.886;5.436;2022-07-09T02:10:29;102643.19;;;20.81;100.00
48846;BME280;34665;51.886;5.436;2022-07-09T02:12:55;102632.75;;;20.77;100.00
48846;BME280;34665;51.886;5.436;2022-07-09T02:15:21;102633.56;;;20.78;100.00
48846;BME280;34665;51.886;5.436;2022-07-09T02:17:47;102630.66;;;20.80;100.00
48846;BME280;34665;51.886;5.436;2022-07-09T02:20:13;102629.78;;;20.79;100.00
48846;BME280;34665;51.886;5.436;2022-07-09T02:22:38;102627.59;;;20.62;100.00
48846;BME280;34665;51.886;5.436;2022-07-09T02:25:04;102626.97;;;20.60;100.00
48846;BME280;34665;51.886;5.436;2022-07-09T02:27:31;102616.09;;;20.60;100.00
48846;BME280;34665;51.886;5.436;2022-07-09T02:29:56;102612.03;;;20.44;100.00
48846;BME280;34665;51.886;5.436;2022-07-09T02:32:22;102616.59;;;20.51;100.00
48846;BME280;34665;51.886;5.436;2022-07-09T02:34:47;102616.09;;;20.60;100.00
48846;BME280;34665;51.886;5.436;2022-07-09T02:37:13;102611.63;;;20.41;100.00
48846;BME280;34665;51.886;5.436;2022-07-09T02:39:38;102617.94;;;20.34;100.00
48846;BME280;34665;51.886;5.436;2022-07-09T02:42:04;102614.69;;;20.58;100.00
48846;BME280;34665;51.886;5.436;2022-07-09T02:44:29;102611.84;;;20.46;100.00
48846;BME280;34665;51.886;5.436;2022-07-09T02:46:56;102613.44;;;20.22;100.00
48846;BME280;34665;51.886;5.436;2022-07-09T02:49:21;102610.63;;;20.42;100.00
48846;BME280;34665;51.886;5.436;2022-07-09T02:51:48;102612.81;;;20.52;100.00
48846;BME280;34665;51.886;5.436;2022-07-09T02:54:14;102613.47;;;20.15;100.00
48846;BME280;34665;51.886;5.436;2022-07-09T02:56:39;102618.19;;;20.33;100.00
48846;BME280;34665;51.886;5.436;2022-07-09T02:59:05;102619.41;;;20.37;100.00
48846;BME280;34665;51.886;5.436;2022-07-09T03:01:30;102617.38;;;20.26;100.00
48846;BME280;34665;51.886;5.436;2022-07-09T03:03:56;102617.13;;;20.34;100.00
48846;BME280;34665;51.886;5.436;2022-07-09T03:06:21;102619.59;;;20.42;100.00
48846;BME280;34665;51.886;5.436;2022-07-09T03:08:47;102611.47;;;20.35;100.00
48846;BME280;34665;51.886;5.436;2022-07-09T03:11:14;102616.78;;;20.88;100.00
48846;BME280;34665;51.886;5.436;2022-07-09T03:13:40;102618.25;;;21.09;100.00
48846;BME280;34665;51.886;5.436;2022-07-09T03:16:05;102617.41;;;20.58;100.00
48846;BME280;34665;51.886;5.436;2022-07-09T03:18:32;102615.47;;;20.65;100.00
48846;BME280;34665;51.886;5.436;2022-07-09T03:20:58;102613.84;;;20.57;100.00
48846;BME280;34665;51.886;5.436;2022-07-09T03:23:23;102611.47;;;20.35;100.00
48846;BME280;34665;51.886;5.436;2022-07-09T03:25:49;102612.47;;;20.41;100.00
48846;BME280;34665;51.886;5.436;2022-07-09T03:28:14;102608.63;;;20.56;100.00
48846;BME280;34665;51.886;5.436;2022-07-09T03:30:40;102611.16;;;20.51;100.00
48846;BME280;34665;51.886;5.436;2022-07-09T03:33:05;102600.41;;;20.37;100.00
48846;BME280;34665;51.886;5.436;2022-07-09T03:35:31;102607.31;;;20.65;100.00
48846;BME280;34665;51.886;5.436;2022-07-09T03:37:56;102608.47;;;20.76;100.00
48846;BME280;34665;51.886;5.436;2022-07-09T03:40:22;102605.34;;;20.72;100.00
48846;BME280;34665;51.886;5.436;2022-07-09T03:42:47;102612.25;;;20.75;100.00
48846;BME280;34665;51.886;5.436;2022-07-09T03:45:14;102613.91;;;20.83;100.00
48846;BME280;34665;51.886;5.436;2022-07-09T03:47:39;102625.16;;;20.86;100.00
48846;BME280;34665;51.886;5.436;2022-07-09T03:50:06;102616.84;;;20.74;100.00
48846;BME280;34665;51.886;5.436;2022-07-09T03:52:32;102612.44;;;20.80;100.00
48846;BME280;34665;51.886;5.436;2022-07-09T03:54:57;102618.50;;;20.75;100.00
48846;BME280;34665;51.886;5.436;2022-07-09T03:57:22;102620.72;;;20.92;100.00
48846;BME280;34665;51.886;5.436;2022-07-09T03:59:48;102623.78;;;21.02;100.00
48846;BME280;34665;51.886;5.436;2022-07-09T04:02:14;102614.47;;;21.10;100.00
48846;BME280;34665;51.886;5.436;2022-07-09T04:04:40;102618.06;;;21.11;100.00
48846;BME280;34665;51.886;5.436;2022-07-09T04:07:05;102617.44;;;21.09;100.00
48846;BME280;34665;51.886;5.436;2022-07-09T04:09:31;102613.06;;;21.08;100.00
48846;BME280;34665;51.886;5.436;2022-07-09T04:11:56;102608.63;;;21.13;100.00
48846;BME280;34665;51.886;5.436;2022-07-09T04:14:22;102605.72;;;21.08;100.00
48846;BME280;34665;51.886;5.436;2022-07-09T04:16:47;102607.63;;;21.08;100.00
48846;BME280;34665;51.886;5.436;2022-07-09T04:19:13;102609.56;;;21.00;100.00
48846;BME280;34665;51.886;5.436;2022-07-09T04:21:38;102603.59;;;21.10;100.00
48846;BME280;34665;51.886;5.436;2022-07-09T04:24:04;102604.59;;;21.16;100.00
48846;BME280;34665;51.886;5.436;2022-07-09T04:26:30;102603.03;;;21.27;100.00
48846;BME280;34665;51.886;5.436;2022-07-09T04:28:56;102610.81;;;21.42;100.00
48846;BME280;34665;51.886;5.436;2022-07-09T04:31:21;102608.78;;;21.56;100.00
48846;BME280;34665;51.886;5.436;2022-07-09T04:33:47;102605.78;;;21.64;100.00
48846;BME280;34665;51.886;5.436;2022-07-09T04:36:13;102603.44;;;21.68;100.00
48846;BME280;34665;51.886;5.436;2022-07-09T04:38:39;102594.53;;;21.79;100.00
48846;BME280;34665;51.886;5.436;2022-07-09T04:41:05;102595.06;;;21.69;100.00
48846;BME280;34665;51.886;5.436;2022-07-09T04:43:31;102602.31;;;21.75;100.00
48846;BME280;34665;51.886;5.436;2022-07-09T04:45:57;102594.69;;;21.47;100.00
48846;BME280;34665;51.886;5.436;2022-07-09T04:48:22;102590.81;;;21.73;100.00
48846;BME280;34665;51.886;5.436;2022-07-09T04:50:48;102589.06;;;21.60;100.00
48846;BME280;34665;51.886;5.436;2022-07-09T04:53:14;102601.97;;;21.72;100.00
48846;BME280;34665;51.886;5.436;2022-07-09T04:55:39;102590.28;;;21.65;100.00
48846;BME280;34665;51.886;5.436;2022-07-09T04:58:05;102580.31;;;21.77;100.00
48846;BME280;34665;51.886;5.436;2022-07-09T05:00:30;102588.75;;;21.87;100.00
48846;BME280;34665;51.886;5.436;2022-07-09T05:02:58;102588.09;;;22.23;100.00
48846;BME280;34665;51.886;5.436;2022-07-09T05:05:23;102584.22;;;22.30;100.00
48846;BME280;34665;51.886;5.436;2022-07-09T05:07:51;102585.13;;;22.24;100.00
48846;BME280;34665;51.886;5.436;2022-07-09T05:10:17;102587.44;;;22.39;100.00
48846;BME280;34665;51.886;5.436;2022-07-09T05:12:43;102594.44;;;22.47;100.00
48846;BME280;34665;51.886;5.436;2022-07-09T05:15:09;102583.34;;;22.60;100.00
48846;BME280;34665;51.886;5.436;2022-07-09T05:17:36;102583.34;;;22.60;100.00
48846;BME280;34665;51.886;5.436;2022-07-09T05:20:06;102578.00;;;22.23;100.00
48846;BME280;34665;51.886;5.436;2022-07-09T05:22:33;102570.97;;;22.46;100.00
48846;BME280;34665;51.886;5.436;2022-07-09T05:24:59;102568.78;;;22.78;100.00
48846;BME280;34665;51.886;5.436;2022-07-09T05:27:25;102574.81;;;23.04;100.00
48846;BME280;34665;51.886;5.436;2022-07-09T05:29:51;102570.81;;;23.31;100.00
48846;BME280;34665;51.886;5.436;2022-07-09T05:32:17;102565.25;;;23.26;100.00
48846;BME280;34665;51.886;5.436;2022-07-09T05:34:42;102564.03;;;23.22;100.00
48846;BME280;34665;51.886;5.436;2022-07-09T05:37:08;102566.41;;;23.42;100.00
48846;BME280;34665;51.886;5.436;2022-07-09T05:39:33;102573.31;;;23.32;100.00
48846;BME280;34665;51.886;5.436;2022-07-09T05:41:59;102576.03;;;23.44;100.00
48846;BME280;34665;51.886;5.436;2022-07-09T05:44:24;102577.06;;;23.55;100.00
48846;BME280;34665;51.886;5.436;2022-07-09T05:46:50;102575.88;;;23.51;100.00
48846;BME280;34665;51.886;5.436;2022-07-09T05:49:15;102581.28;;;23.63;100.00
48846;BME280;34665;51.886;5.436;2022-07-09T05:51:41;102582.94;;;23.76;100.00
48846;BME280;34665;51.886;5.436;2022-07-09T05:54:07;102584.94;;;23.81;100.00
48846;BME280;34665;51.886;5.436;2022-07-09T05:56:33;102587.72;;;23.98;100.00
48846;BME280;34665;51.886;5.436;2022-07-09T05:58:59;102589.53;;;24.04;100.00
48846;BME280;34665;51.886;5.436;2022-07-09T06:01:25;102586.22;;;24.19;100.00
48846;BME280;34665;51.886;5.436;2022-07-09T06:03:51;102590.28;;;24.16;100.00
48846;BME280;34665;51.886;5.436;2022-07-09T06:06:16;102588.06;;;24.30;100.00
48846;BME280;34665;51.886;5.436;2022-07-09T06:08:41;102591.22;;;24.56;100.00
48846;BME280;34665;51.886;5.436;2022-07-09T06:11:07;102602.84;;;24.63;100.00
48846;BME280;34665;51.886;5.436;2022-07-09T06:13:33;102609.13;;;24.64;100.00
48846;BME280;34665;51.886;5.436;2022-07-09T06:15:58;102608.00;;;24.77;100.00
48846;BME280;34665;51.886;5.436;2022-07-09T06:18:24;102601.84;;;24.53;100.00
48846;BME280;34665;51.886;5.436;2022-07-09T06:20:49;102605.44;;;24.24;100.00
48846;BME280;34665;51.886;5.436;2022-07-09T06:23:15;102611.13;;;24.69;100.00
48846;BME280;34665;51.886;5.436;2022-07-09T06:25:40;102603.72;;;24.81;100.00
48846;BME280;34665;51.886;5.436;2022-07-09T06:28:06;102599.19;;;24.58;100.00
48846;BME280;34665;51.886;5.436;2022-07-09T06:30:33;102599.50;;;24.27;100.00
48846;BME280;34665;51.886;5.436;2022-07-09T06:33:00;102602.28;;;24.61;100.00
48846;BME280;34665;51.886;5.436;2022-07-09T06:35:26;102602.06;;;24.80;100.00
48846;BME280;34665;51.886;5.436;2022-07-09T06:37:52;102606.00;;;24.72;100.00
48846;BME280;34665;51.886;5.436;2022-07-09T06:40:18;102597.03;;;24.43;100.00
48846;BME280;34665;51.886;5.436;2022-07-09T06:42:43;102605.44;;;25.04;100.00
48846;BME280;34665;51.886;5.436;2022-07-09T06:45:17;102598.53;;;25.02;100.00
48846;BME280;34665;51.886;5.436;2022-07-09T06:47:43;102598.94;;;25.28;100.00
48846;BME280;34665;51.886;5.436;2022-07-09T06:50:08;102600.13;;;24.46;100.00
48846;BME280;34665;51.886;5.436;2022-07-09T06:52:34;102593.63;;;24.36;100.00
48846;BME280;34665;51.886;5.436;2022-07-09T06:55:00;102587.84;;;24.03;100.00
48846;BME280;34665;51.886;5.436;2022-07-09T06:57:26;102599.72;;;24.89;100.00
48846;BME280;34665;51.886;5.436;2022-07-09T06:59:52;102597.38;;;24.63;100.00
48846;BME280;34665;51.886;5.436;2022-07-09T07:02:17;102596.38;;;24.53;100.00
48846;BME280;34665;51.886;5.436;2022-07-09T07:04:44;102592.38;;;24.26;100.00
48846;BME280;34665;51.886;5.436;2022-07-09T07:07:09;102592.00;;;24.05;100.00
48846;BME280;34665;51.886;5.436;2022-07-09T07:09:34;102596.91;;;24.84;100.00
48846;BME280;34665;51.886;5.436;2022-07-09T07:12:00;102591.13;;;24.80;100.00
48846;BME280;34665;51.886;5.436;2022-07-09T07:14:26;102593.25;;;24.95;100.00
48846;BME280;34665;51.886;5.436;2022-07-09T07:16:52;102597.03;;;23.85;100.00
48846;BME280;34665;51.886;5.436;2022-07-09T07:19:19;102603.63;;;24.01;100.00
48846;BME280;34665;51.886;5.436;2022-07-09T07:21:49;102597.84;;;24.26;100.00
48846;BME280;34665;51.886;5.436;2022-07-09T07:24:14;102605.31;;;25.16;100.00
48846;BME280;34665;51.886;5.436;2022-07-09T07:26:40;102588.38;;;24.17;100.00
48846;BME280;34665;51.886;5.436;2022-07-09T07:29:05;102591.22;;;24.22;100.00
48846;BME280;34665;51.886;5.436;2022-07-09T07:31:31;102582.56;;;24.13;100.00
48846;BME280;34665;51.886;5.436;2022-07-09T07:33:57;102585.25;;;24.42;100.00
48846;BME280;34665;51.886;5.436;2022-07-09T07:36:22;102599.44;;;24.39;100.00
48846;BME280;34665;51.886;5.436;2022-07-09T07:38:49;102595.88;;;24.73;100.00
48846;BME280;34665;51.886;5.436;2022-07-09T07:41:15;102586.53;;;24.52;100.00
48846;BME280;34665;51.886;5.436;2022-07-09T07:43:44;102593.81;;;24.63;100.00
48846;BME280;34665;51.886;5.436;2022-07-09T07:46:10;102574.50;;;24.53;100.00
48846;BME280;34665;51.886;5.436;2022-07-09T07:48:36;102571.00;;;24.23;100.00
48846;BME280;34665;51.886;5.436;2022-07-09T07:51:03;102573.00;;;24.62;100.00
48846;BME280;34665;51.886;5.436;2022-07-09T07:53:32;102581.00;;;24.81;100.00
48846;BME280;34665;51.886;5.436;2022-07-09T07:56:00;102575.25;;;24.65;100.00
48846;BME280;34665;51.886;5.436;2022-07-09T07:58:25;102572.06;;;25.08;100.00
48846;BME280;34665;51.886;5.436;2022-07-09T08:00:51;102577.09;;;25.33;100.00
48846;BME280;34665;51.886;5.436;2022-07-09T08:03:17;102588.34;;;25.37;100.00
48846;BME280;34665;51.886;5.436;2022-07-09T08:05:42;102572.63;;;25.27;100.00
48846;BME280;34665;51.886;5.436;2022-07-09T08:08:08;102571.91;;;25.81;100.00
48846;BME280;34665;51.886;5.436;2022-07-09T08:10:33;102581.34;;;25.90;100.00
48846;BME280;34665;51.886;5.436;2022-07-09T08:12:58;102578.13;;;25.99;100.00
48846;BME280;34665;51.886;5.436;2022-07-09T08:15:24;102567.63;;;25.63;100.00
48846;BME280;34665;51.886;5.436;2022-07-09T08:17:49;102565.28;;;25.50;100.00
48846;BME280;34665;51.886;5.436;2022-07-09T08:20:15;102569.09;;;25.31;100.00
48846;BME280;34665;51.886;5.436;2022-07-09T08:22:40;102570.47;;;26.01;100.00
48846;BME280;34665;51.886;5.436;2022-07-09T08:25:05;102572.91;;;25.47;100.00
48846;BME280;34665;51.886;5.436;2022-07-09T08:27:31;102567.88;;;25.61;100.00
48846;BME280;34665;51.886;5.436;2022-07-09T08:29:56;102558.72;;;25.33;100.00
48846;BME280;34665;51.886;5.436;2022-07-09T08:32:22;102557.53;;;25.69;100.00
48846;BME280;34665;51.886;5.436;2022-07-09T08:34:48;102567.28;;;25.82;100.00
48846;BME280;34665;51.886;5.436;2022-07-09T08:37:13;102565.31;;;25.77;100.00
48846;BME280;34665;51.886;5.436;2022-07-09T08:39:39;102567.94;;;25.67;100.00
48846;BME280;34665;51.886;5.436;2022-07-09T08:42:08;102572.88;;;25.25;100.00
48846;BME280;34665;51.886;5.436;2022-07-09T08:44:37;102571.91;;;25.37;100.00
48846;BME280;34665;51.886;5.436;2022-07-09T08:47:04;102577.63;;;25.52;100.00
48846;BME280;34665;51.886;5.436;2022-07-09T08:49:31;102572.75;;;25.37;100.00
48846;BME280;34665;51.886;5.436;2022-07-09T08:51:57;102580.63;;;25.33;100.00
48846;BME280;34665;51.886;5.436;2022-07-09T08:54:23;102575.84;;;25.24;100.00
48846;BME280;34665;51.886;5.436;2022-07-09T08:56:53;102575.72;;;25.35;100.00
48846;BME280;34665;51.886;5.436;2022-07-09T08:59:18;102573.22;;;25.51;100.00
48846;BME280;34665;51.886;5.436;2022-07-09T09:01:44;102588.44;;;25.42;100.00
48846;BME280;34665;51.886;5.436;2022-07-09T09:04:10;102579.22;;;25.48;100.00
48846;BME280;34665;51.886;5.436;2022-07-09T09:06:37;102574.22;;;25.45;100.00
48846;BME280;34665;51.886;5.436;2022-07-09T09:09:07;102560.38;;;25.34;100.00
48846;BME280;34665;51.886;5.436;2022-07-09T09:11:33;102564.53;;;25.59;100.00
48846;BME280;34665;51.886;5.436;2022-07-09T09:14:01;102557.56;;;25.96;100.00
48846;BME280;34665;51.886;5.436;2022-07-09T09:16:27;102568.75;;;26.49;100.00
48846;BME280;34665;51.886;5.436;2022-07-09T09:18:52;102564.44;;;26.59;100.00
48846;BME280;34665;51.886;5.436;2022-07-09T09:21:26;102567.16;;;26.91;100.00
48846;BME280;34665;51.886;5.436;2022-07-09T09:23:53;102565.63;;;27.11;100.00
48846;BME280;34665;51.886;5.436;2022-07-09T09:26:21;102571.50;;;27.36;100.00
48846;BME280;34665;51.886;5.436;2022-07-09T09:28:50;102564.03;;;27.20;100.00
48846;BME280;34665;51.886;5.436;2022-07-09T09:33:51;102567.28;;;26.74;100.00
48846;BME280;34665;51.886;5.436;2022-07-09T09:36:28;102571.03;;;26.96;100.00
48846;BME280;34665;51.886;5.436;2022-07-09T09:38:53;102572.34;;;26.50;100.00
48846;BME280;34665;51.886;5.436;2022-07-09T09:41:22;102570.69;;;26.87;100.00
48846;BME280;34665;51.886;5.436;2022-07-09T09:43:51;102556.06;;;26.81;100.00
48846;BME280;34665;51.886;5.436;2022-07-09T09:46:19;102555.88;;;26.50;100.00
48846;BME280;34665;51.886;5.436;2022-07-09T09:48:44;102559.41;;;26.45;100.00
48846;BME280;34665;51.886;5.436;2022-07-09T09:51:11;102557.53;;;26.89;100.00
48846;BME280;34665;51.886;5.436;2022-07-09T09:53:40;102553.13;;;27.46;100.00
48846;BME280;34665;51.886;5.436;2022-07-09T09:56:07;102555.22;;;28.08;100.00
48846;BME280;34665;51.886;5.436;2022-07-09T09:58:35;102558.03;;;28.24;100.00
48846;BME280;34665;51.886;5.436;2022-07-09T10:01:00;102558.13;;;27.55;100.00
48846;BME280;34665;51.886;5.436;2022-07-09T10:03:26;102548.94;;;28.23;100.00
48846;BME280;34665;51.886;5.436;2022-07-09T10:05:51;102558.00;;;28.60;100.00
48846;BME280;34665;51.886;5.436;2022-07-09T10:08:17;102546.69;;;27.99;100.00
48846;BME280;34665;51.886;5.436;2022-07-09T10:10:51;102563.72;;;27.86;100.00
48846;BME280;34665;51.886;5.436;2022-07-09T10:13:21;102573.13;;;28.47;100.00
48846;BME280;34665;51.886;5.436;2022-07-09T10:15:49;102566.22;;;28.03;100.00
48846;BME280;34665;51.886;5.436;2022-07-09T10:18:19;102565.44;;;28.59;100.00
48846;BME280;34665;51.886;5.436;2022-07-09T10:20:45;102571.75;;;28.60;100.00
48846;BME280;34665;51.886;5.436;2022-07-09T10:23:21;102571.91;;;29.26;100.00
48846;BME280;34665;51.886;5.436;2022-07-09T10:25:49;102574.34;;;29.38;100.00
48846;BME280;34665;51.886;5.436;2022-07-09T10:28:21;102569.97;;;29.31;100.00
48846;BME280;34665;51.886;5.436;2022-07-09T10:30:47;102573.41;;;28.71;100.00
48846;BME280;34665;51.886;5.436;2022-07-09T10:33:22;102570.50;;;29.28;100.00
48846;BME280;34665;51.886;5.436;2022-07-09T10:35:52;102568.50;;;30.00;100.00
48846;BME280;34665;51.886;5.436;2022-07-09T10:38:19;102575.63;;;29.61;100.00
48846;BME280;34665;51.886;5.436;2022-07-09T10:40:57;102570.50;;;29.28;100.00
48846;BME280;34665;51.886;5.436;2022-07-09T10:43:42;102563.75;;;29.00;100.00
48846;BME280;34665;51.886;5.436;2022-07-09T10:46:14;102574.50;;;28.55;100.00
48846;BME280;34665;51.886;5.436;2022-07-09T10:48:40;102582.44;;;30.54;100.00
48846;BME280;34665;51.886;5.436;2022-07-09T10:51:06;102586.50;;;31.15;100.00
48846;BME280;34665;51.886;5.436;2022-07-09T10:53:31;102592.28;;;31.19;100.00
48846;BME280;34665;51.886;5.436;2022-07-09T10:55:58;102584.84;;;30.90;100.00
48846;BME280;34665;51.886;5.436;2022-07-09T10:58:24;102587.13;;;30.53;100.00
48846;BME280;34665;51.886;5.436;2022-07-09T11:00:57;102581.97;;;30.46;100.00
48846;BME280;34665;51.886;5.436;2022-07-09T11:03:28;102595.56;;;30.97;100.00
48846;BME280;34665;51.886;5.436;2022-07-09T11:05:54;102589.53;;;31.19;100.00
48846;BME280;34665;51.886;5.436;2022-07-09T11:08:19;102593.91;;;30.96;100.00
48846;BME280;34665;51.886;5.436;2022-07-09T11:10:45;102591.28;;;31.34;100.00
48846;BME280;34665;51.886;5.436;2022-07-09T11:13:10;102594.09;;;32.77;87.65
48846;BME280;34665;51.886;5.436;2022-07-09T11:15:37;102592.16;;;33.61;78.98
48846;BME280;34665;51.886;5.436;2022-07-09T11:18:08;102591.25;;;34.57;74.11
48846;BME280;34665;51.886;5.436;2022-07-09T11:20:39;102604.22;;;34.62;71.62
48846;BME280;34665;51.886;5.436;2022-07-09T11:23:05;102606.88;;;34.76;69.86
48846;BME280;34665;51.886;5.436;2022-07-09T11:25:30;102606.59;;;35.36;66.79
48846;BME280;34665;51.886;5.436;2022-07-09T11:27:56;102602.22;;;35.52;65.17
48846;BME280;34665;51.886;5.436;2022-07-09T11:30:24;102604.84;;;36.28;61.09
48846;BME280;34665;51.886;5.436;2022-07-09T11:32:50;102618.03;;;36.66;57.17
48846;BME280;34665;51.886;5.436;2022-07-09T11:37:51;102603.75;;;36.77;57.41
48846;BME280;34665;51.886;5.436;2022-07-09T11:40:17;102609.03;;;36.69;55.47
48846;BME280;34665;51.886;5.436;2022-07-09T11:42:44;102613.75;;;36.69;53.26
48846;BME280;34665;51.886;5.436;2022-07-09T11:45:10;102613.06;;;36.81;54.62
48846;BME280;34665;51.886;5.436;2022-07-09T11:47:38;102609.13;;;35.99;58.01
48846;BME280;34665;51.886;5.436;2022-07-09T11:50:15;102620.91;;;35.60;59.73
48846;BME280;34665;51.886;5.436;2022-07-09T11:55:11;102609.91;;;36.35;53.95
48846;BME280;34665;51.886;5.436;2022-07-09T11:57:38;102614.66;;;36.91;54.61
48846;BME280;34665;51.886;5.436;2022-07-09T12:00:06;102619.22;;;37.04;52.16
48846;BME280;34665;51.886;5.436;2022-07-09T12:02:39;102619.88;;;36.53;51.29
48846;BME280;34665;51.886;5.436;2022-07-09T12:05:07;102623.34;;;36.33;51.79
48846;BME280;34665;51.886;5.436;2022-07-09T12:07:33;102621.50;;;37.32;51.38
48846;BME280;34665;51.886;5.436;2022-07-09T12:10:09;102623.59;;;37.14;50.22
48846;BME280;34665;51.886;5.436;2022-07-09T12:12:36;102622.63;;;36.62;47.23
48846;BME280;34665;51.886;5.436;2022-07-09T12:15:04;102613.91;;;35.14;52.14
48846;BME280;34665;51.886;5.436;2022-07-09T12:17:31;102602.69;;;34.33;63.10
48846;BME280;34665;51.886;5.436;2022-07-09T12:19:58;102608.81;;;36.09;53.95
48846;BME280;34665;51.886;5.436;2022-07-09T12:22:24;102614.59;;;36.69;50.12
48846;BME280;34665;51.886;5.436;2022-07-09T12:24:51;102609.13;;;36.82;52.19
48846;BME280;34665;51.886;5.436;2022-07-09T12:27:17;102602.09;;;35.66;53.64
48846;BME280;34665;51.886;5.436;2022-07-09T12:29:43;102604.44;;;36.65;51.34
48846;BME280;34665;51.886;5.436;2022-07-09T12:32:09;102604.84;;;36.37;52.83
48846;BME280;34665;51.886;5.436;2022-07-09T12:34:35;102589.31;;;36.18;53.11
48846;BME280;34665;51.886;5.436;2022-07-09T12:37:01;102596.78;;;36.53;47.40
48846;BME280;34665;51.886;5.436;2022-07-09T12:39:27;102605.13;;;36.53;50.73
48846;BME280;34665;51.886;5.436;2022-07-09T12:41:53;102603.78;;;37.07;43.70
48846;BME280;34665;51.886;5.436;2022-07-09T12:44:18;102605.38;;;37.68;45.77